Time;durP1;ratioP1;P1;durP2;ratioP2;P2;SDS_P1;SDS_P2;PMS_P1;PMS_P2;Temp;Humidity;BMP_temperature;BMP_pressure;BME280_temperature;BME280_humidity;BME280_pressure;Samples;Min_cycle;Max_cycle;Signal;HPM_P1;HPM_P2
2022/03/19 00:01:50;;;;;;;18.00;3.42;;;;;;;3.24;99.18;104713.31;4973048;28;20037;-74
2022/03/19 00:04:16;;;;;;;15.75;3.75;;;;;;;3.21;99.26;104705.34;5008405;28;20030;-73
2022/03/19 00:06:46;;;;;;;21.77;3.50;;;;;;;3.18;98.77;104707.78;4988654;28;20099;-72
2022/03/19 00:09:11;;;;;;;17.30;3.42;;;;;;;3.15;99.38;104712.91;4992934;28;20033;-72
2022/03/19 00:11:37;;;;;;;18.13;3.58;;;;;;;3.10;99.34;104705.72;4991194;28;20047;-72
2022/03/19 00:14:03;;;;;;;11.35;2.80;;;;;;;3.07;99.37;104710.81;4971446;28;20058;-72
2022/03/19 00:16:29;;;;;;;17.52;2.78;;;;;;;3.04;99.15;104708.03;4984735;28;20609;-72
2022/03/19 00:18:54;;;;;;;12.90;2.83;;;;;;;3.02;99.42;104712.31;4988337;28;20405;-72
2022/03/19 00:21:20;;;;;;;18.10;3.67;;;;;;;3.00;99.42;104713.97;4985771;28;20132;-73
2022/03/19 00:23:46;;;;;;;18.52;3.08;;;;;;;2.96;99.52;104717.25;5000950;28;20105;-72
2022/03/19 00:26:12;;;;;;;15.57;2.63;;;;;;;2.93;99.37;104712.75;4985607;28;20839;-72
2022/03/19 00:28:38;;;;;;;21.23;3.30;;;;;;;2.90;99.51;104716.94;4988741;28;20037;-72
2022/03/19 00:31:04;;;;;;;16.02;3.40;;;;;;;2.87;99.49;104711.56;4988990;28;20492;-72
2022/03/19 00:33:29;;;;;;;16.50;3.35;;;;;;;2.83;99.74;104711.41;4987806;28;20041;-72
2022/03/19 00:35:55;;;;;;;19.17;3.30;;;;;;;2.82;99.67;104709.59;4984152;28;20064;-72
2022/03/19 00:38:20;;;;;;;14.25;3.17;;;;;;;2.80;99.75;104711.25;4987472;28;20034;-72
2022/03/19 00:40:47;;;;;;;16.13;3.40;;;;;;;2.78;99.78;104720.72;4984362;28;20033;-72
2022/03/19 00:43:13;;;;;;;21.63;3.55;;;;;;;2.77;99.48;104723.31;4986136;28;20026;-72
2022/03/19 00:45:39;;;;;;;17.95;3.58;;;;;;;2.75;100.00;104725.84;4989479;28;20045;-72
2022/03/19 00:48:05;;;;;;;18.38;3.50;;;;;;;2.71;99.80;104716.94;4988800;28;20034;-73
2022/03/19 00:50:30;;;;;;;19.20;3.42;;;;;;;2.70;99.99;104719.47;4989113;28;20508;-73
2022/03/19 00:52:56;;;;;;;21.33;3.83;;;;;;;2.66;100.00;104717.53;4955939;28;20058;-73
2022/03/19 00:55:21;;;;;;;15.82;3.22;;;;;;;2.64;100.00;104720.06;4988846;28;20493;-73
2022/03/19 00:57:48;;;;;;;23.75;3.63;;;;;;;2.63;100.00;104718.28;4988165;28;20053;-73
2022/03/19 01:00:15;;;;;;;20.40;3.75;;;;;;;2.64;100.00;104722.69;4989100;28;20062;-73
2022/03/19 01:02:43;;;;;;;18.50;3.60;;;;;;;2.64;100.00;104725.31;4988717;28;20039;-73
2022/03/19 01:05:09;;;;;;;19.88;3.42;;;;;;;2.63;100.00;104720.88;4986915;28;20437;-73
2022/03/19 01:07:45;;;;;;;16.08;3.38;;;;;;;2.62;100.00;104720.81;4985890;28;20029;-73
2022/03/19 01:10:12;;;;;;;24.80;3.72;;;;;;;2.60;100.00;104707.63;4983798;28;20583;-73
2022/03/19 01:12:38;;;;;;;18.80;3.53;;;;;;;2.60;100.00;104704.13;4987574;28;20037;-74
2022/03/19 01:15:04;;;;;;;16.58;3.35;;;;;;;2.60;100.00;104705.03;4999665;28;20042;-73
2022/03/19 01:17:30;;;;;;;14.63;3.20;;;;;;;2.58;100.00;104702.31;5002181;28;20038;-73
2022/03/19 01:19:58;;;;;;;21.13;4.13;;;;;;;2.58;100.00;104699.69;5003429;28;20037;-73
2022/03/19 01:22:25;;;;;;;18.50;3.25;;;;;;;2.56;100.00;104709.19;5003134;28;20049;-73
2022/03/19 01:24:50;;;;;;;15.98;3.35;;;;;;;2.56;100.00;104693.50;5001210;28;20053;-73
2022/03/19 01:27:16;;;;;;;15.50;3.30;;;;;;;2.55;100.00;104701.25;5004276;28;20049;-73
2022/03/19 01:29:42;;;;;;;20.45;3.47;;;;;;;2.53;100.00;104700.31;4986007;28;20564;-73
2022/03/19 01:32:08;;;;;;;17.15;3.33;;;;;;;2.52;100.00;104696.81;4988252;28;20357;-73
2022/03/19 01:34:33;;;;;;;16.50;4.13;;;;;;;2.52;100.00;104693.28;5002888;28;20499;-73
2022/03/19 01:36:59;;;;;;;15.45;2.85;;;;;;;2.49;100.00;104694.03;5005782;28;20526;-73
2022/03/19 01:39:24;;;;;;;23.20;3.67;;;;;;;2.49;100.00;104694.03;4972921;28;20051;-74
2022/03/19 01:41:50;;;;;;;16.70;3.55;;;;;;;2.46;100.00;104696.50;5002624;28;20033;-73
2022/03/19 01:44:20;;;;;;;19.35;3.38;;;;;;;2.47;100.00;104698.28;5004153;28;20105;-73
2022/03/19 01:46:59;;;;;;;15.68;3.20;;;;;;;2.46;100.00;104698.19;5000665;28;20033;-73
2022/03/19 01:49:25;;;;;;;18.88;3.13;;;;;;;2.44;100.00;104685.94;4991396;28;20026;-73
2022/03/19 01:51:52;;;;;;;18.30;3.17;;;;;;;2.43;100.00;104683.25;5004146;28;20108;-74
2022/03/19 01:54:37;;;;;;;14.43;3.47;;;;;;;2.43;100.00;104693.72;5003124;28;20034;-73
2022/03/19 01:57:03;;;;;;;16.90;3.47;;;;;;;2.43;100.00;104688.47;5002641;28;20554;-73
2022/03/19 01:59:34;;;;;;;24.25;3.28;;;;;;;2.41;100.00;104692.75;5003344;28;20035;-74
2022/03/19 02:02:02;;;;;;;14.73;3.53;;;;;;;2.39;100.00;104690.03;4998856;28;20062;-72
2022/03/19 02:04:28;;;;;;;16.35;3.92;;;;;;;2.36;100.00;104689.00;5001342;28;20084;-72
2022/03/19 02:06:54;;;;;;;19.88;3.20;;;;;;;2.33;100.00;104679.25;5003221;28;20190;-72
2022/03/19 02:09:20;;;;;;;21.65;3.00;;;;;;;2.32;100.00;104677.47;5004661;28;20069;-72
2022/03/19 02:11:46;;;;;;;13.73;3.25;;;;;;;2.34;100.00;104680.19;4981907;28;20120;-72
2022/03/19 02:14:11;;;;;;;15.85;3.38;;;;;;;2.31;100.00;104673.94;5001726;28;20194;-72
2022/03/19 02:16:38;;;;;;;15.60;3.50;;;;;;;2.30;100.00;104673.88;4983571;28;20053;-72
2022/03/19 02:19:03;;;;;;;20.02;3.63;;;;;;;2.29;100.00;104675.59;4967485;28;20221;-72
2022/03/19 02:21:43;;;;;;;21.52;3.25;;;;;;;2.33;100.00;104675.78;4983160;28;20038;-72
2022/03/19 02:27:01;;;;;;;17.38;3.90;;;;;;;2.34;100.00;104664.47;4980432;28;20111;-73
2022/03/19 02:29:27;;;;;;;18.90;3.97;;;;;;;2.34;100.00;104672.31;5001933;28;20033;-72
2022/03/19 02:31:55;;;;;;;18.80;3.90;;;;;;;2.33;100.00;104674.03;4973248;28;20837;-72
2022/03/19 02:34:21;;;;;;;15.13;3.33;;;;;;;2.32;100.00;104659.16;4985259;28;20163;-72
2022/03/19 02:36:46;;;;;;;17.58;3.20;;;;;;;2.30;100.00;104656.47;4982292;28;20029;-72
2022/03/19 02:39:16;;;;;;;20.92;3.60;;;;;;;2.29;100.00;104664.25;5001974;28;20048;-73
2022/03/19 02:41:43;;;;;;;21.35;3.50;;;;;;;2.25;100.00;104652.75;4982517;28;20124;-73
2022/03/19 02:44:09;;;;;;;18.55;3.75;;;;;;;2.24;100.00;104656.16;4984001;28;20113;-73
2022/03/19 02:46:40;;;;;;;16.83;3.45;;;;;;;2.22;100.00;104649.94;4984204;28;20048;-73
2022/03/19 02:49:05;;;;;;;15.80;3.47;;;;;;;2.20;100.00;104659.44;5004308;28;20033;-73
2022/03/19 02:51:35;;;;;;;15.27;3.33;;;;;;;2.20;100.00;104659.44;5002106;28;20063;-73
2022/03/19 02:54:05;;;;;;;17.35;3.58;;;;;;;2.18;100.00;104661.06;5002169;28;21312;-73
2022/03/19 02:56:36;;;;;;;20.08;3.60;;;;;;;2.17;100.00;104654.03;4981014;28;20519;-73
2022/03/19 02:59:05;;;;;;;20.33;3.45;;;;;;;2.17;100.00;104643.59;4987381;28;20416;-73
2022/03/19 03:01:31;;;;;;;14.27;3.35;;;;;;;2.18;100.00;104653.22;5000899;28;20132;-73
2022/03/19 03:03:56;;;;;;;17.40;3.60;;;;;;;2.14;100.00;104648.66;5001499;28;20036;-73
2022/03/19 03:06:22;;;;;;;21.75;3.63;;;;;;;2.14;100.00;104659.13;5002385;28;20029;-73
2022/03/19 03:08:47;;;;;;;19.45;3.72;;;;;;;2.14;100.00;104659.13;5003682;28;20411;-73
2022/03/19 03:11:13;;;;;;;17.17;3.70;;;;;;;2.12;100.00;104653.81;5002817;28;20128;-73
2022/03/19 03:13:38;;;;;;;16.38;3.42;;;;;;;2.09;100.00;104656.28;4985477;28;20580;-73
2022/03/19 03:16:04;;;;;;;17.58;3.75;;;;;;;2.08;100.00;104651.88;5002058;28;20435;-73
2022/03/19 03:18:30;;;;;;;18.13;4.25;;;;;;;2.07;100.00;104657.91;5002721;28;20116;-72
2022/03/19 03:20:58;;;;;;;19.58;3.80;;;;;;;2.05;100.00;104650.81;5001248;28;20795;-73
2022/03/19 03:23:26;;;;;;;15.85;4.03;;;;;;;2.04;100.00;104652.53;4999966;28;20057;-73
2022/03/19 03:25:52;;;;;;;20.10;4.10;;;;;;;2.02;100.00;104649.81;5001779;28;20034;-73
2022/03/19 03:28:20;;;;;;;21.30;4.43;;;;;;;2.01;100.00;104650.66;4983976;28;20033;-73
2022/03/19 03:30:46;;;;;;;19.90;4.30;;;;;;;2.02;100.00;104660.28;5001336;28;20041;-73
2022/03/19 03:33:11;;;;;;;17.80;3.85;;;;;;;2.03;100.00;104658.59;5001707;28;20045;-73
2022/03/19 03:35:37;;;;;;;20.02;4.03;;;;;;;2.02;100.00;104665.50;5000774;28;20053;-73
2022/03/19 03:38:02;;;;;;;17.60;4.75;;;;;;;2.01;100.00;104663.72;4985277;28;20473;-73
2022/03/19 03:40:28;;;;;;;18.25;4.28;;;;;;;2.01;100.00;104658.50;5001795;28;20033;-73
2022/03/19 03:42:54;;;;;;;19.40;4.43;;;;;;;2.02;100.00;104660.28;4987687;28;20153;-73
2022/03/19 03:45:20;;;;;;;21.92;4.15;;;;;;;2.02;100.00;104656.78;5001463;28;20038;-73
2022/03/19 03:47:46;;;;;;;20.58;4.45;;;;;;;2.00;100.00;104656.69;4999766;28;21449;-73
2022/03/19 03:50:12;;;;;;;23.75;4.28;;;;;;;1.99;100.00;104657.53;5003195;28;20548;-73
2022/03/19 03:52:37;;;;;;;21.80;4.38;;;;;;;1.98;100.00;104647.88;4998766;28;20546;-73
2022/03/19 03:55:06;;;;;;;24.70;4.32;;;;;;;1.98;100.00;104646.97;4970987;28;20064;-73
2022/03/19 03:57:35;;;;;;;22.73;4.70;;;;;;;1.96;100.00;104644.28;4987881;28;20416;-73
2022/03/19 04:00:02;;;;;;;15.13;3.90;;;;;;;1.95;100.00;104642.50;5002816;28;20025;-73
2022/03/19 04:02:28;;;;;;;23.48;5.35;;;;;;;1.97;100.00;104630.38;5000705;28;20033;-73
2022/03/19 04:04:53;;;;;;;17.25;4.70;;;;;;;1.99;100.00;104633.09;5001374;28;20116;-73
2022/03/19 04:07:19;;;;;;;21.45;4.75;;;;;;;1.99;100.00;104625.25;5001329;28;20109;-73
2022/03/19 04:09:44;;;;;;;25.63;4.97;;;;;;;1.98;100.00;104634.81;5002253;28;20029;-73
2022/03/19 04:12:10;;;;;;;20.85;4.82;;;;;;;1.98;100.00;104632.22;5001073;28;20036;-73
2022/03/19 04:14:36;;;;;;;17.95;4.93;;;;;;;1.98;100.00;104624.38;5002091;28;20037;-73
2022/03/19 04:17:04;;;;;;;23.75;5.43;;;;;;;1.99;100.00;104630.47;4967294;28;20030;-73
2022/03/19 04:19:30;;;;;;;24.55;4.78;;;;;;;1.97;100.00;104622.53;5000982;28;20061;-73
2022/03/19 04:21:56;;;;;;;21.60;5.45;;;;;;;1.96;100.00;104620.75;4998339;28;20558;-72
2022/03/19 04:24:21;;;;;;;23.00;5.35;;;;;;;1.97;100.00;104624.28;5001487;28;20033;-73
2022/03/19 04:26:47;;;;;;;21.60;5.43;;;;;;;1.96;100.00;104623.38;5002478;28;20038;-73
2022/03/19 04:29:12;;;;;;;22.85;5.70;;;;;;;1.96;100.00;104627.72;5001434;28;20115;-73
2022/03/19 04:31:38;;;;;;;24.10;5.13;;;;;;;1.94;100.00;104609.34;5001467;28;20155;-73
2022/03/19 04:34:03;;;;;;;19.88;5.82;;;;;;;1.94;100.00;104624.09;4982037;28;21500;-73
2022/03/19 04:36:30;;;;;;;26.48;5.65;;;;;;;1.92;100.00;104615.28;5000374;28;20045;-73
2022/03/19 04:38:56;;;;;;;20.75;6.07;;;;;;;1.90;100.00;104620.44;4984068;28;20056;-73
2022/03/19 04:41:22;;;;;;;18.35;5.30;;;;;;;1.87;100.00;104617.69;5001386;28;20037;-73
2022/03/19 04:43:47;;;;;;;22.05;5.35;;;;;;;1.86;100.00;104610.66;4985131;28;20564;-73
2022/03/19 04:46:13;;;;;;;24.90;6.20;;;;;;;1.86;100.00;104608.03;4983948;28;20036;-73
2022/03/19 04:48:38;;;;;;;23.98;6.50;;;;;;;1.86;100.00;104610.66;5004995;28;20060;-73
2022/03/19 04:51:04;;;;;;;21.52;6.90;;;;;;;1.85;100.00;104606.25;4974010;28;20071;-73
2022/03/19 04:53:30;;;;;;;22.60;6.05;;;;;;;1.84;100.00;104607.03;5002486;28;20404;-73
2022/03/19 04:55:55;;;;;;;20.23;6.25;;;;;;;1.83;100.00;104602.66;4975024;28;20041;-73
2022/03/19 04:58:21;;;;;;;23.95;6.68;;;;;;;1.81;100.00;104604.28;5003843;28;20029;-73
2022/03/19 05:00:48;;;;;;;20.20;6.00;;;;;;;1.81;100.00;104614.75;4983100;28;20037;-73
2022/03/19 05:03:14;;;;;;;23.25;6.90;;;;;;;1.81;100.00;104619.97;5003096;28;20033;-73
2022/03/19 05:05:40;;;;;;;19.02;6.55;;;;;;;1.78;100.00;104622.44;4984691;28;20025;-73
2022/03/19 05:08:06;;;;;;;20.38;6.57;;;;;;;1.77;100.00;104624.13;4973194;28;20030;-73
2022/03/19 05:13:17;;;;;;;19.50;6.25;;;;;;;1.79;100.00;104629.47;4997549;28;20140;-73
2022/03/19 05:15:43;;;;;;;27.30;6.97;;;;;;;1.79;100.00;104619.00;4983333;28;20081;-73
2022/03/19 05:18:09;;;;;;;20.25;6.68;;;;;;;1.82;100.00;104620.06;4997978;28;20042;-73
2022/03/19 05:20:35;;;;;;;23.33;7.43;;;;;;;1.83;100.00;104618.31;4981612;28;20037;-73
2022/03/19 05:23:00;;;;;;;24.17;7.95;;;;;;;1.87;100.00;104626.41;4983476;28;20623;-74
2022/03/19 05:25:26;;;;;;;21.83;6.75;;;;;;;1.90;100.00;104625.66;4983915;28;20044;-74
2022/03/19 05:27:52;;;;;;;22.98;7.07;;;;;;;1.92;100.00;104626.66;4983700;28;20046;-74
2022/03/19 05:30:17;;;;;;;18.88;6.45;;;;;;;1.93;100.00;104624.94;4996833;28;20132;-73
2022/03/19 05:32:43;;;;;;;16.88;6.22;;;;;;;1.91;100.00;104624.88;4983447;28;20042;-73
2022/03/19 05:35:09;;;;;;;17.58;6.32;;;;;;;1.92;100.00;104630.97;4982650;28;20499;-73
2022/03/19 05:37:34;;;;;;;19.30;6.57;;;;;;;1.92;100.00;104621.44;4984935;28;20030;-73
2022/03/19 05:40:04;;;;;;;18.95;6.68;;;;;;;1.93;100.00;104618.00;4982505;28;20123;-73
2022/03/19 05:42:30;;;;;;;20.15;6.72;;;;;;;1.95;100.00;104618.09;4996654;28;20033;-74
2022/03/19 05:44:55;;;;;;;24.20;6.78;;;;;;;1.96;100.00;104615.53;4984563;28;20564;-73
2022/03/19 05:47:21;;;;;;;22.85;7.20;;;;;;;1.99;100.00;104623.53;4984763;28;20094;-73
2022/03/19 05:49:46;;;;;;;18.35;7.10;;;;;;;2.00;100.00;104624.41;4968813;28;20540;-73
2022/03/19 05:52:12;;;;;;;22.80;7.30;;;;;;;1.98;100.00;104620.84;4977909;28;20021;-73
2022/03/19 05:54:37;;;;;;;19.92;6.68;;;;;;;1.98;100.00;104620.84;4979730;28;20029;-73
2022/03/19 05:57:03;;;;;;;27.10;7.20;;;;;;;1.96;100.00;104620.75;4947668;28;20026;-73
2022/03/19 05:59:29;;;;;;;20.95;7.68;;;;;;;1.96;100.00;104628.59;4984000;28;20038;-73
2022/03/19 06:01:54;;;;;;;17.70;6.63;;;;;;;1.97;100.00;104626.88;4983006;28;21255;-74
2022/03/19 06:04:20;;;;;;;21.55;6.95;;;;;;;1.97;100.00;104630.38;4964044;28;20022;-74
2022/03/19 06:06:47;;;;;;;17.02;6.57;;;;;;;1.97;100.00;104637.34;4985032;28;20034;-74
2022/03/19 06:09:12;;;;;;;23.40;7.65;;;;;;;1.99;100.00;104636.63;4998878;28;20057;-73
2022/03/19 06:11:39;;;;;;;18.67;6.75;;;;;;;2.01;100.00;104637.56;4984771;28;20113;-73
2022/03/19 06:14:05;;;;;;;23.05;7.15;;;;;;;2.07;100.00;104649.19;4997620;28;20054;-74
2022/03/19 06:16:31;;;;;;;20.30;7.60;;;;;;;2.11;100.00;104640.66;4983555;28;20037;-73
2022/03/19 06:18:56;;;;;;;24.77;6.85;;;;;;;2.16;100.00;104644.41;4984512;28;20064;-73
2022/03/19 06:21:25;;;;;;;18.65;7.28;;;;;;;2.19;100.00;104646.28;4968228;28;20044;-74
2022/03/19 06:23:52;;;;;;;23.80;7.93;;;;;;;2.22;100.00;104644.72;4980848;28;20394;-74
2022/03/19 06:26:19;;;;;;;19.48;7.05;;;;;;;2.26;100.00;104649.31;4982195;28;20462;-73
2022/03/19 06:28:46;;;;;;;22.15;6.63;;;;;;;2.33;100.00;104649.63;4984320;28;20030;-73
2022/03/19 06:31:11;;;;;;;24.38;7.40;;;;;;;2.38;100.00;104649.00;4980324;28;20405;-73
2022/03/19 06:33:41;;;;;;;16.73;7.63;;;;;;;2.44;100.00;104646.72;4983880;28;20042;-73
2022/03/19 06:38:51;;;;;;;26.38;8.25;;;;;;;2.56;100.00;104653.38;4983332;28;21328;-73
2022/03/19 06:41:16;;;;;;;20.30;7.35;;;;;;;2.63;100.00;104645.00;4982311;28;20341;-73
2022/03/19 06:43:43;;;;;;;28.27;7.50;;;;;;;2.69;100.00;104644.41;4982889;28;20038;-73
2022/03/19 06:46:09;;;;;;;24.05;7.68;;;;;;;2.76;100.00;104651.72;4983283;28;20038;-73
2022/03/19 06:48:34;;;;;;;20.55;8.07;;;;;;;2.83;100.00;104652.94;4964969;28;20045;-73
2022/03/19 06:51:00;;;;;;;18.83;7.55;;;;;;;2.87;100.00;104648.75;4980402;28;20060;-73
2022/03/19 06:53:26;;;;;;;20.33;7.47;;;;;;;2.93;100.00;104654.25;4983481;28;20049;-73
2022/03/19 06:55:52;;;;;;;20.23;7.15;;;;;;;2.98;100.00;104655.38;4983457;28;20042;-74
2022/03/19 06:58:20;;;;;;;18.67;6.93;;;;;;;3.04;100.00;104652.16;4982889;28;20492;-73
2022/03/19 07:00:46;;;;;;;18.67;5.93;;;;;;;3.12;100.00;104662.16;4983041;28;20026;-73
2022/03/19 07:03:12;;;;;;;27.23;8.15;;;;;;;3.20;100.00;104656.38;4982659;28;20045;-73
2022/03/19 07:05:38;;;;;;;19.52;7.32;;;;;;;3.28;100.00;104660.28;4980922;28;20030;-72
2022/03/19 07:08:07;;;;;;;16.85;6.30;;;;;;;3.35;100.00;104661.44;4980212;28;20032;-73
2022/03/19 07:10:36;;;;;;;15.82;6.10;;;;;;;3.43;100.00;104660.06;4980516;28;20030;-72
2022/03/19 07:13:03;;;;;;;18.25;6.22;;;;;;;3.53;100.00;104658.75;4991245;28;20045;-73
2022/03/19 07:15:29;;;;;;;18.15;6.97;;;;;;;3.59;100.00;104659.03;5002067;28;20072;-73
2022/03/19 07:18:00;;;;;;;19.45;7.00;;;;;;;3.63;100.00;104663.59;5001710;28;20168;-73
2022/03/19 07:20:25;;;;;;;20.65;7.03;;;;;;;3.70;100.00;104661.25;4999342;28;20033;-72
2022/03/19 07:23:05;;;;;;;17.90;6.45;;;;;;;3.77;100.00;104668.56;4997416;28;20381;-73
2022/03/19 07:25:33;;;;;;;21.35;7.32;;;;;;;3.83;100.00;104660.97;4965964;28;20038;-73
2022/03/19 07:28:10;;;;;;;23.30;7.20;;;;;;;3.91;99.73;104659.59;5000347;28;20123;-73
2022/03/19 07:30:36;;;;;;;18.38;6.88;;;;;;;3.97;99.43;104664.19;5001260;28;20040;-73
2022/03/19 07:33:02;;;;;;;21.52;7.32;;;;;;;4.05;99.29;104670.66;5005708;28;20099;-73
2022/03/19 07:35:27;;;;;;;16.00;7.35;;;;;;;4.11;99.03;104662.19;5006951;28;20068;-73
2022/03/19 07:37:53;;;;;;;18.13;6.90;;;;;;;4.19;97.85;104662.50;5007618;28;20144;-73
2022/03/19 07:43:07;;;;;;;20.70;7.25;;;;;;;4.37;97.42;104670.28;4989366;28;20116;-73
2022/03/19 07:45:33;;;;;;;20.02;6.85;;;;;;;4.44;97.34;104667.06;5000905;28;20068;-73
2022/03/19 07:47:59;;;;;;;19.95;6.97;;;;;;;4.54;96.73;104670.06;5002560;28;20061;-73
2022/03/19 07:50:25;;;;;;;24.00;7.38;;;;;;;4.59;96.69;104658.03;4984437;28;20047;-73
2022/03/19 07:52:51;;;;;;;19.88;6.55;;;;;;;4.64;96.27;104664.38;5005343;28;20463;-73
2022/03/19 07:55:17;;;;;;;18.55;6.38;;;;;;;4.70;95.85;104651.50;5006182;28;20131;-73
2022/03/19 07:57:43;;;;;;;15.60;6.90;;;;;;;4.78;95.54;104662.28;5005611;28;20051;-73
2022/03/19 08:00:09;;;;;;;21.73;6.75;;;;;;;4.84;95.48;104664.25;5006888;28;20515;-73
2022/03/19 08:02:35;;;;;;;17.98;6.30;;;;;;;4.91;95.49;104663.69;4970764;28;20037;-73
2022/03/19 08:05:03;;;;;;;16.95;6.30;;;;;;;4.99;95.67;104658.72;5000414;28;20037;-73
2022/03/19 08:07:29;;;;;;;21.55;6.45;;;;;;;5.07;95.43;104653.78;4984900;28;20033;-73
2022/03/19 08:09:55;;;;;;;16.08;6.45;;;;;;;5.17;95.43;104663.81;5003686;28;20427;-73
2022/03/19 08:12:20;;;;;;;19.13;6.68;;;;;;;5.22;94.82;104661.38;5005042;28;20065;-72
2022/03/19 08:14:46;;;;;;;17.55;6.32;;;;;;;5.28;95.51;104657.22;5001828;28;20119;-74
2022/03/19 08:17:12;;;;;;;18.42;6.10;;;;;;;5.34;94.45;104663.56;4987824;28;20084;-74
2022/03/19 08:19:37;;;;;;;21.10;6.32;;;;;;;5.40;94.65;104664.69;5006330;28;20640;-73
2022/03/19 08:22:03;;;;;;;20.05;7.20;;;;;;;5.44;94.99;104666.59;5008302;28;20073;-73
2022/03/19 08:24:29;;;;;;;23.25;6.55;;;;;;;5.50;94.92;104663.28;5008645;28;20026;-72
2022/03/19 08:26:55;;;;;;;16.10;6.85;;;;;;;5.56;94.53;104663.53;4972372;28;20030;-73
2022/03/19 08:29:23;;;;;;;22.00;7.28;;;;;;;5.62;94.36;104657.59;5007794;28;20079;-74
2022/03/19 08:31:53;;;;;;;19.63;6.72;;;;;;;5.65;94.07;104655.09;4990265;28;20156;-73
2022/03/19 08:34:19;;;;;;;22.88;6.88;;;;;;;5.70;93.67;104656.16;4989908;28;20045;-73
2022/03/19 08:36:44;;;;;;;17.60;6.25;;;;;;;5.76;92.79;104655.47;5006905;28;20033;-73
2022/03/19 08:41:54;;;;;;;16.83;6.10;;;;;;;5.86;92.34;104656.69;4993485;28;20320;-71
2022/03/19 08:44:20;;;;;;;16.85;5.95;;;;;;;5.93;91.94;104657.78;4989502;28;20473;-73
2022/03/19 08:46:46;;;;;;;19.45;5.90;;;;;;;5.99;91.51;104655.38;4988524;28;20033;-69
2022/03/19 08:49:11;;;;;;;20.25;6.28;;;;;;;6.06;90.85;104659.16;4989106;28;20037;-74
2022/03/19 08:51:40;;;;;;;15.63;5.43;;;;;;;6.12;90.30;104648.84;5005743;28;21507;-75
2022/03/19 08:54:07;;;;;;;19.98;6.70;;;;;;;6.19;90.05;104649.94;5007362;28;20675;-73
2022/03/19 08:56:33;;;;;;;16.48;5.88;;;;;;;6.22;89.67;104652.69;4973874;28;20033;-73
2022/03/19 08:58:59;;;;;;;14.32;5.90;;;;;;;6.28;89.30;104647.66;5007507;28;20030;-73
2022/03/19 09:01:25;;;;;;;21.42;5.90;;;;;;;6.35;89.96;104641.75;4987090;28;20056;-73
2022/03/19 09:03:51;;;;;;;23.73;5.97;;;;;;;6.41;89.27;104638.41;4983713;28;20120;-74
2022/03/19 09:06:17;;;;;;;21.45;5.88;;;;;;;6.46;88.82;104633.28;5006363;28;20041;-74
2022/03/19 09:08:44;;;;;;;16.77;4.60;;;;;;;6.50;88.14;104622.03;5007997;28;20037;-74
2022/03/19 09:11:10;;;;;;;13.55;4.85;;;;;;;6.56;87.30;104640.66;5005723;28;20091;-74
2022/03/19 09:13:36;;;;;;;24.77;5.30;;;;;;;6.65;86.07;104634.81;4990249;28;20045;-73
2022/03/19 09:16:03;;;;;;;17.20;5.10;;;;;;;6.72;86.24;104625.34;5004968;28;20496;-74
2022/03/19 09:18:29;;;;;;;14.73;4.47;;;;;;;6.78;85.38;104622.91;5007442;28;20052;-74
2022/03/19 09:20:55;;;;;;;17.92;4.18;;;;;;;6.80;84.35;104634.38;5005453;28;20037;-74
2022/03/19 09:23:21;;;;;;;17.85;4.50;;;;;;;6.81;83.67;104630.88;5007968;28;20631;-73
2022/03/19 09:25:46;;;;;;;9.07;3.67;;;;;;;6.82;81.91;104616.00;5006823;28;20075;-73
2022/03/19 09:28:12;;;;;;;13.80;4.40;;;;;;;6.87;81.65;104614.41;5007752;28;20091;-73
2022/03/19 09:30:38;;;;;;;13.73;4.10;;;;;;;6.93;80.85;104606.69;5008254;28;20507;-72
2022/03/19 09:33:03;;;;;;;15.48;3.75;;;;;;;7.00;80.94;104620.91;4990330;28;20034;-73
2022/03/19 09:35:29;;;;;;;17.67;4.30;;;;;;;7.03;81.04;104610.50;5007926;28;20038;-72
2022/03/19 09:37:55;;;;;;;15.35;4.00;;;;;;;7.07;81.18;104609.72;5006652;28;20471;-72
2022/03/19 09:40:21;;;;;;;12.45;3.47;;;;;;;7.09;79.85;104605.41;5009152;28;20029;-73
2022/03/19 09:42:53;;;;;;;10.52;3.08;;;;;;;7.14;78.51;104595.00;5006542;28;20615;-73
2022/03/19 09:45:20;;;;;;;13.23;3.30;;;;;;;7.15;78.10;104589.75;5005562;28;20369;-72
2022/03/19 09:47:47;;;;;;;11.23;2.97;;;;;;;7.18;77.43;104597.75;4994988;28;20471;-72
2022/03/19 09:50:12;;;;;;;13.90;3.40;;;;;;;7.22;76.36;104587.28;4978805;28;20073;-72
2022/03/19 09:52:41;;;;;;;19.55;3.50;;;;;;;7.30;76.39;104584.03;4988923;28;20764;-71
2022/03/19 09:55:08;;;;;;;8.38;2.35;;;;;;;7.37;76.74;104585.09;5006638;28;20041;-70
2022/03/19 09:57:34;;;;;;;11.27;2.85;;;;;;;7.42;75.17;104582.59;5004116;28;20040;-70
2022/03/19 10:00:00;;;;;;;11.38;3.05;;;;;;;7.44;74.89;104575.59;4990321;28;20479;-70
2022/03/19 10:02:26;;;;;;;9.88;3.25;;;;;;;7.50;74.35;104586.31;5001676;28;20392;-71
2022/03/19 10:04:56;;;;;;;9.55;2.95;;;;;;;7.54;73.57;104576.75;5007266;28;20465;-71
2022/03/19 10:10:11;;;;;;;15.85;3.58;;;;;;;7.66;73.48;104571.81;4993779;28;20518;-72
2022/03/19 10:12:39;;;;;;;10.77;2.83;;;;;;;7.69;74.34;104563.09;4985995;28;20046;-71
2022/03/19 10:15:09;;;;;;;9.73;2.53;;;;;;;7.73;73.22;104565.84;5004281;28;20478;-70
2022/03/19 10:17:39;;;;;;;14.27;2.80;;;;;;;7.75;70.20;104564.13;4985657;28;20096;-71
2022/03/19 10:20:10;;;;;;;10.68;2.90;;;;;;;7.77;70.74;104547.44;4986792;28;20108;-71
2022/03/19 10:22:41;;;;;;;11.20;3.10;;;;;;;7.82;70.72;104545.81;4988734;28;20044;-71
2022/03/19 10:25:08;;;;;;;11.95;3.08;;;;;;;7.83;69.98;104548.50;4985775;28;20045;-72
2022/03/19 10:27:39;;;;;;;9.75;2.90;;;;;;;7.87;69.03;104541.56;5001459;28;20405;-71
2022/03/19 10:30:22;;;;;;;11.98;2.60;;;;;;;7.91;68.99;104542.53;5007007;28;20034;-71
2022/03/19 10:32:55;;;;;;;;;;;;;;;7.93;66.37;104541.72;5004959;28;20026;-71
2022/03/19 10:35:24;;;;;;;7.80;2.88;;;;;;;7.98;63.61;104534.81;5002344;28;19943;-70
2022/03/19 10:37:50;;;;;;;9.25;2.47;;;;;;;8.02;65.79;104534.03;4987384;28;20128;-70
2022/03/19 10:40:16;;;;;;;12.38;3.63;;;;;;;8.07;65.24;104535.91;5004484;28;20033;-70
2022/03/19 10:42:42;;;;;;;7.32;2.38;;;;;;;8.12;65.71;104523.72;5002951;28;20037;-70
2022/03/19 10:45:12;;;;;;;5.00;2.20;;;;;;;8.15;60.76;104514.13;4987177;28;20040;-71
2022/03/19 10:47:40;;;;;;;10.27;2.45;;;;;;;8.21;63.05;104518.63;4989927;28;20524;-71
2022/03/19 10:50:05;;;;;;;7.00;2.17;;;;;;;8.27;60.97;104517.88;4985088;28;20241;-71
2022/03/19 10:52:31;;;;;;;11.25;2.45;;;;;;;8.31;61.40;104505.63;5003842;28;20025;-71
2022/03/19 10:54:58;;;;;;;9.43;2.35;;;;;;;8.34;62.77;104508.38;5004200;28;20037;-71
2022/03/19 10:57:23;;;;;;;8.75;2.20;;;;;;;8.35;61.41;104499.59;5005467;28;20251;-70
2022/03/19 10:59:49;;;;;;;9.40;2.30;;;;;;;8.42;62.62;104505.03;5005393;28;20033;-71
2022/03/19 11:02:15;;;;;;;7.45;2.20;;;;;;;8.46;59.98;104513.94;5005221;28;20476;-70
2022/03/19 11:04:41;;;;;;;7.75;2.20;;;;;;;8.53;60.92;104499.13;5002071;28;20032;-70
2022/03/19 11:07:08;;;;;;;8.60;2.17;;;;;;;8.54;61.16;104491.25;4985750;28;20618;-71
2022/03/19 11:09:34;;;;;;;8.68;2.60;;;;;;;8.58;61.02;104492.19;4999901;28;20041;-71
2022/03/19 11:12:07;;;;;;;7.18;2.13;;;;;;;8.61;59.11;104486.09;4970042;28;20092;-71
2022/03/19 11:14:37;;;;;;;5.70;1.92;;;;;;;8.64;55.67;104475.56;4967543;28;20244;-71
2022/03/19 11:17:24;;;;;;;11.40;2.45;;;;;;;8.69;55.55;104473.94;4985572;28;20029;-71
2022/03/19 11:20:11;;;;;;;7.50;2.20;;;;;;;8.73;58.02;104475.78;4981959;28;20049;-69
2022/03/19 11:23:09;;;;;;;7.43;2.60;;;;;;;8.75;57.24;104462.59;5001916;28;20505;-69
2022/03/19 11:25:45;;;;;;;11.27;2.53;;;;;;;8.82;59.66;104464.50;4950466;28;20041;-70
2022/03/19 11:28:11;;;;;;;8.23;2.50;;;;;;;8.92;60.62;104469.09;4984968;28;20037;-69
2022/03/19 11:30:40;;;;;;;9.20;2.50;;;;;;;9.02;60.38;104466.63;5000080;28;20244;-70
2022/03/19 11:33:06;;;;;;;11.88;2.80;;;;;;;9.02;60.81;104456.97;5000606;28;20037;-69
2022/03/19 11:35:33;;;;;;;9.05;2.40;;;;;;;9.00;60.40;104463.97;4979378;28;20053;-71
2022/03/19 11:38:01;;;;;;;11.07;3.28;;;;;;;9.05;60.40;104459.66;4983132;28;20041;-69